sensor_id;sensor_type;location;lat;lon;timestamp;P1;durP1;ratioP1;P2;durP2;ratioP2
39020;SDS011;25188;51.958;5.842;2022-07-06T00:01:21;3.63;;;1.00;;
39020;SDS011;25188;51.958;5.842;2022-07-06T00:03:47;3.45;;;1.00;;
39020;SDS011;25188;51.958;5.842;2022-07-06T00:06:13;5.82;;;0.98;;
39020;SDS011;25188;51.958;5.842;2022-07-06T00:08:39;5.57;;;1.10;;
39020;SDS011;25188;51.958;5.842;2022-07-06T00:11:05;5.85;;;1.10;;
39020;SDS011;25188;51.958;5.842;2022-07-06T00:13:31;3.53;;;1.10;;
39020;SDS011;25188;51.958;5.842;2022-07-06T00:15:57;2.22;;;0.80;;
39020;SDS011;25188;51.958;5.842;2022-07-06T00:18:22;3.40;;;1.00;;
39020;SDS011;25188;51.958;5.842;2022-07-06T00:20:48;5.28;;;1.50;;
39020;SDS011;25188;51.958;5.842;2022-07-06T00:23:14;3.00;;;1.05;;
39020;SDS011;25188;51.958;5.842;2022-07-06T00:25:39;3.72;;;1.30;;
39020;SDS011;25188;51.958;5.842;2022-07-06T00:28:05;4.68;;;1.00;;
39020;SDS011;25188;51.958;5.842;2022-07-06T00:30:30;3.83;;;1.00;;
39020;SDS011;25188;51.958;5.842;2022-07-06T00:32:56;4.65;;;0.90;;
39020;SDS011;25188;51.958;5.842;2022-07-06T00:35:23;2.83;;;1.10;;
39020;SDS011;25188;51.958;5.842;2022-07-06T00:37:49;3.53;;;0.90;;
39020;SDS011;25188;51.958;5.842;2022-07-06T00:40:15;3.65;;;1.27;;
39020;SDS011;25188;51.958;5.842;2022-07-06T00:42:42;2.28;;;1.00;;
39020;SDS011;25188;51.958;5.842;2022-07-06T00:45:09;4.13;;;1.15;;
39020;SDS011;25188;51.958;5.842;2022-07-06T00:47:41;4.00;;;1.05;;
39020;SDS011;25188;51.958;5.842;2022-07-06T00:50:07;5.72;;;1.50;;
39020;SDS011;25188;51.958;5.842;2022-07-06T00:52:48;3.50;;;1.08;;
39020;SDS011;25188;51.958;5.842;2022-07-06T00:55:17;3.55;;;1.10;;
39020;SDS011;25188;51.958;5.842;2022-07-06T00:57:44;6.15;;;1.10;;
39020;SDS011;25188;51.958;5.842;2022-07-06T01:00:11;6.57;;;1.10;;
39020;SDS011;25188;51.958;5.842;2022-07-06T01:02:38;1.70;;;0.70;;
39020;SDS011;25188;51.958;5.842;2022-07-06T01:05:05;6.13;;;2.15;;
39020;SDS011;25188;51.958;5.842;2022-07-06T01:07:32;4.75;;;1.05;;
39020;SDS011;25188;51.958;5.842;2022-07-06T01:09:58;4.03;;;1.00;;
39020;SDS011;25188;51.958;5.842;2022-07-06T01:12:24;7.05;;;1.17;;
39020;SDS011;25188;51.958;5.842;2022-07-06T01:14:50;3.95;;;1.23;;
39020;SDS011;25188;51.958;5.842;2022-07-06T01:17:19;6.47;;;1.27;;
39020;SDS011;25188;51.958;5.842;2022-07-06T01:19:46;6.38;;;1.20;;
39020;SDS011;25188;51.958;5.842;2022-07-06T01:22:12;5.25;;;1.17;;
39020;SDS011;25188;51.958;5.842;2022-07-06T01:24:38;6.70;;;1.30;;
39020;SDS011;25188;51.958;5.842;2022-07-06T01:27:04;3.50;;;1.17;;
39020;SDS011;25188;51.958;5.842;2022-07-06T01:29:31;2.08;;;0.90;;
39020;SDS011;25188;51.958;5.842;2022-07-06T01:31:57;4.07;;;1.38;;
39020;SDS011;25188;51.958;5.842;2022-07-06T01:34:23;2.78;;;1.10;;
39020;SDS011;25188;51.958;5.842;2022-07-06T01:36:49;5.50;;;1.20;;
39020;SDS011;25188;51.958;5.842;2022-07-06T01:39:14;4.22;;;1.23;;
39020;SDS011;25188;51.958;5.842;2022-07-06T01:41:40;4.97;;;1.60;;
39020;SDS011;25188;51.958;5.842;2022-07-06T01:44:06;8.55;;;1.30;;
39020;SDS011;25188;51.958;5.842;2022-07-06T01:46:32;3.47;;;1.13;;
39020;SDS011;25188;51.958;5.842;2022-07-06T01:48:58;3.53;;;1.42;;
39020;SDS011;25188;51.958;5.842;2022-07-06T01:51:24;2.97;;;1.40;;
39020;SDS011;25188;51.958;5.842;2022-07-06T01:53:50;4.47;;;1.45;;
39020;SDS011;25188;51.958;5.842;2022-07-06T01:56:17;6.03;;;1.45;;
39020;SDS011;25188;51.958;5.842;2022-07-06T01:58:44;3.83;;;1.30;;
39020;SDS011;25188;51.958;5.842;2022-07-06T02:01:11;3.00;;;1.20;;
39020;SDS011;25188;51.958;5.842;2022-07-06T02:03:41;5.53;;;1.05;;
39020;SDS011;25188;51.958;5.842;2022-07-06T02:06:08;4.53;;;1.35;;
39020;SDS011;25188;51.958;5.842;2022-07-06T02:08:34;3.60;;;1.20;;
39020;SDS011;25188;51.958;5.842;2022-07-06T02:11:01;4.93;;;1.45;;
39020;SDS011;25188;51.958;5.842;2022-07-06T02:13:28;7.65;;;1.17;;
39020;SDS011;25188;51.958;5.842;2022-07-06T02:15:53;4.28;;;1.42;;
39020;SDS011;25188;51.958;5.842;2022-07-06T02:18:19;5.55;;;1.10;;
39020;SDS011;25188;51.958;5.842;2022-07-06T02:20:45;7.45;;;1.27;;
39020;SDS011;25188;51.958;5.842;2022-07-06T02:23:11;3.85;;;1.17;;
39020;SDS011;25188;51.958;5.842;2022-07-06T02:25:36;5.60;;;1.08;;
39020;SDS011;25188;51.958;5.842;2022-07-06T02:28:02;5.40;;;1.70;;
39020;SDS011;25188;51.958;5.842;2022-07-06T02:30:28;5.70;;;1.20;;
39020;SDS011;25188;51.958;5.842;2022-07-06T02:32:54;6.60;;;1.27;;
39020;SDS011;25188;51.958;5.842;2022-07-06T02:35:19;6.30;;;1.55;;
39020;SDS011;25188;51.958;5.842;2022-07-06T02:37:45;5.90;;;1.65;;
39020;SDS011;25188;51.958;5.842;2022-07-06T02:40:11;5.93;;;1.58;;
39020;SDS011;25188;51.958;5.842;2022-07-06T02:42:37;4.05;;;1.63;;
39020;SDS011;25188;51.958;5.842;2022-07-06T02:45:02;7.38;;;1.63;;
39020;SDS011;25188;51.958;5.842;2022-07-06T02:47:28;5.25;;;2.15;;
39020;SDS011;25188;51.958;5.842;2022-07-06T02:49:54;7.80;;;2.22;;
39020;SDS011;25188;51.958;5.842;2022-07-06T02:52:20;5.00;;;1.58;;
39020;SDS011;25188;51.958;5.842;2022-07-06T02:54:45;7.60;;;2.42;;
39020;SDS011;25188;51.958;5.842;2022-07-06T02:57:11;3.97;;;1.77;;
39020;SDS011;25188;51.958;5.842;2022-07-06T02:59:37;7.05;;;2.25;;
39020;SDS011;25188;51.958;5.842;2022-07-06T03:02:06;4.25;;;1.73;;
39020;SDS011;25188;51.958;5.842;2022-07-06T03:04:32;8.68;;;1.60;;
39020;SDS011;25188;51.958;5.842;2022-07-06T03:06:58;5.75;;;2.15;;
39020;SDS011;25188;51.958;5.842;2022-07-06T03:09:24;4.80;;;1.58;;
39020;SDS011;25188;51.958;5.842;2022-07-06T03:11:50;4.95;;;2.05;;
39020;SDS011;25188;51.958;5.842;2022-07-06T03:14:16;5.13;;;1.50;;
39020;SDS011;25188;51.958;5.842;2022-07-06T03:16:41;5.40;;;1.38;;
39020;SDS011;25188;51.958;5.842;2022-07-06T03:19:07;5.53;;;1.85;;
39020;SDS011;25188;51.958;5.842;2022-07-06T03:21:33;5.28;;;1.75;;
39020;SDS011;25188;51.958;5.842;2022-07-06T03:23:58;7.55;;;1.77;;
39020;SDS011;25188;51.958;5.842;2022-07-06T03:26:24;4.97;;;1.58;;
39020;SDS011;25188;51.958;5.842;2022-07-06T03:28:50;5.28;;;2.13;;
39020;SDS011;25188;51.958;5.842;2022-07-06T03:31:15;2.95;;;1.35;;
39020;SDS011;25188;51.958;5.842;2022-07-06T03:33:41;4.45;;;1.67;;
39020;SDS011;25188;51.958;5.842;2022-07-06T03:36:07;3.67;;;1.45;;
39020;SDS011;25188;51.958;5.842;2022-07-06T03:38:33;3.53;;;1.48;;
39020;SDS011;25188;51.958;5.842;2022-07-06T03:40:59;4.22;;;1.20;;
39020;SDS011;25188;51.958;5.842;2022-07-06T03:43:24;5.63;;;1.40;;
39020;SDS011;25188;51.958;5.842;2022-07-06T03:45:50;5.68;;;1.75;;
39020;SDS011;25188;51.958;5.842;2022-07-06T03:48:16;5.70;;;1.50;;
39020;SDS011;25188;51.958;5.842;2022-07-06T03:50:41;4.35;;;1.42;;
39020;SDS011;25188;51.958;5.842;2022-07-06T03:53:07;4.32;;;1.52;;
39020;SDS011;25188;51.958;5.842;2022-07-06T03:55:32;4.28;;;1.30;;
39020;SDS011;25188;51.958;5.842;2022-07-06T03:57:58;10.95;;;1.63;;
39020;SDS011;25188;51.958;5.842;2022-07-06T04:00:24;3.85;;;1.60;;
39020;SDS011;25188;51.958;5.842;2022-07-06T04:02:49;7.35;;;1.00;;
39020;SDS011;25188;51.958;5.842;2022-07-06T04:05:15;8.18;;;1.50;;
39020;SDS011;25188;51.958;5.842;2022-07-06T04:07:45;3.40;;;0.90;;
39020;SDS011;25188;51.958;5.842;2022-07-06T04:10:15;4.80;;;1.60;;
39020;SDS011;25188;51.958;5.842;2022-07-06T04:12:41;5.85;;;1.70;;
39020;SDS011;25188;51.958;5.842;2022-07-06T04:15:08;3.40;;;1.30;;
39020;SDS011;25188;51.958;5.842;2022-07-06T04:17:35;5.30;;;1.83;;
39020;SDS011;25188;51.958;5.842;2022-07-06T04:20:19;6.00;;;1.13;;
39020;SDS011;25188;51.958;5.842;2022-07-06T04:22:45;8.68;;;1.67;;
39020;SDS011;25188;51.958;5.842;2022-07-06T04:25:11;4.05;;;1.38;;
39020;SDS011;25188;51.958;5.842;2022-07-06T04:27:36;4.80;;;1.50;;
39020;SDS011;25188;51.958;5.842;2022-07-06T04:30:03;2.80;;;1.15;;
39020;SDS011;25188;51.958;5.842;2022-07-06T04:32:30;5.80;;;1.73;;
39020;SDS011;25188;51.958;5.842;2022-07-06T04:34:55;4.40;;;1.25;;
39020;SDS011;25188;51.958;5.842;2022-07-06T04:37:21;3.53;;;1.33;;
39020;SDS011;25188;51.958;5.842;2022-07-06T04:39:47;3.47;;;1.50;;
39020;SDS011;25188;51.958;5.842;2022-07-06T04:42:12;2.65;;;1.02;;
39020;SDS011;25188;51.958;5.842;2022-07-06T04:44:38;3.70;;;1.40;;
39020;SDS011;25188;51.958;5.842;2022-07-06T04:47:04;2.67;;;1.13;;
39020;SDS011;25188;51.958;5.842;2022-07-06T04:49:29;3.50;;;1.50;;
39020;SDS011;25188;51.958;5.842;2022-07-06T04:51:55;4.75;;;1.60;;
39020;SDS011;25188;51.958;5.842;2022-07-06T04:54:21;3.70;;;1.42;;
39020;SDS011;25188;51.958;5.842;2022-07-06T04:56:47;6.20;;;1.42;;
39020;SDS011;25188;51.958;5.842;2022-07-06T04:59:13;6.00;;;1.58;;
39020;SDS011;25188;51.958;5.842;2022-07-06T05:01:39;6.20;;;1.80;;
39020;SDS011;25188;51.958;5.842;2022-07-06T05:04:05;4.90;;;1.90;;
39020;SDS011;25188;51.958;5.842;2022-07-06T05:06:32;7.22;;;2.13;;
39020;SDS011;25188;51.958;5.842;2022-07-06T05:08:58;4.45;;;1.50;;
39020;SDS011;25188;51.958;5.842;2022-07-06T05:11:24;5.18;;;2.13;;
39020;SDS011;25188;51.958;5.842;2022-07-06T05:13:53;6.20;;;2.30;;
39020;SDS011;25188;51.958;5.842;2022-07-06T05:16:19;6.25;;;1.85;;
39020;SDS011;25188;51.958;5.842;2022-07-06T05:18:45;5.25;;;1.75;;
39020;SDS011;25188;51.958;5.842;2022-07-06T05:21:11;3.97;;;1.88;;
39020;SDS011;25188;51.958;5.842;2022-07-06T05:23:36;5.30;;;2.17;;
39020;SDS011;25188;51.958;5.842;2022-07-06T05:26:02;5.60;;;2.15;;
39020;SDS011;25188;51.958;5.842;2022-07-06T05:28:28;6.47;;;1.65;;
39020;SDS011;25188;51.958;5.842;2022-07-06T05:30:53;7.35;;;2.35;;
39020;SDS011;25188;51.958;5.842;2022-07-06T05:33:19;6.40;;;1.67;;
39020;SDS011;25188;51.958;5.842;2022-07-06T05:35:44;3.65;;;1.60;;
39020;SDS011;25188;51.958;5.842;2022-07-06T05:38:10;7.72;;;1.33;;
39020;SDS011;25188;51.958;5.842;2022-07-06T05:40:36;3.85;;;1.20;;
39020;SDS011;25188;51.958;5.842;2022-07-06T05:43:02;5.57;;;1.40;;
39020;SDS011;25188;51.958;5.842;2022-07-06T05:45:28;6.72;;;0.82;;
39020;SDS011;25188;51.958;5.842;2022-07-06T05:47:54;8.77;;;0.98;;
39020;SDS011;25188;51.958;5.842;2022-07-06T05:50:37;2.72;;;0.57;;
39020;SDS011;25188;51.958;5.842;2022-07-06T05:53:03;3.63;;;0.70;;
39020;SDS011;25188;51.958;5.842;2022-07-06T05:55:30;7.05;;;0.40;;
39020;SDS011;25188;51.958;5.842;2022-07-06T05:57:56;9.73;;;0.80;;
39020;SDS011;25188;51.958;5.842;2022-07-06T06:00:22;1.75;;;0.50;;
39020;SDS011;25188;51.958;5.842;2022-07-06T06:02:49;3.75;;;0.47;;
39020;SDS011;25188;51.958;5.842;2022-07-06T06:05:15;4.72;;;0.82;;
39020;SDS011;25188;51.958;5.842;2022-07-06T06:07:41;2.17;;;0.60;;
39020;SDS011;25188;51.958;5.842;2022-07-06T06:10:08;4.40;;;0.50;;
39020;SDS011;25188;51.958;5.842;2022-07-06T06:12:35;1.60;;;0.32;;
39020;SDS011;25188;51.958;5.842;2022-07-06T06:15:01;5.78;;;0.40;;
39020;SDS011;25188;51.958;5.842;2022-07-06T06:17:27;6.93;;;0.77;;
39020;SDS011;25188;51.958;5.842;2022-07-06T06:19:53;4.50;;;0.60;;
39020;SDS011;25188;51.958;5.842;2022-07-06T06:22:19;2.03;;;0.30;;
39020;SDS011;25188;51.958;5.842;2022-07-06T06:24:44;3.53;;;0.50;;
39020;SDS011;25188;51.958;5.842;2022-07-06T06:27:10;3.08;;;0.43;;
39020;SDS011;25188;51.958;5.842;2022-07-06T06:29:36;2.05;;;0.40;;
39020;SDS011;25188;51.958;5.842;2022-07-06T06:32:02;1.65;;;0.32;;
39020;SDS011;25188;51.958;5.842;2022-07-06T06:34:28;4.00;;;0.40;;
39020;SDS011;25188;51.958;5.842;2022-07-06T06:36:53;2.03;;;0.50;;
39020;SDS011;25188;51.958;5.842;2022-07-06T06:39:19;2.15;;;0.55;;
39020;SDS011;25188;51.958;5.842;2022-07-06T06:41:45;4.30;;;0.60;;
39020;SDS011;25188;51.958;5.842;2022-07-06T06:44:10;4.55;;;0.40;;
39020;SDS011;25188;51.958;5.842;2022-07-06T06:46:36;4.60;;;0.43;;
39020;SDS011;25188;51.958;5.842;2022-07-06T06:49:03;2.78;;;0.40;;
39020;SDS011;25188;51.958;5.842;2022-07-06T06:51:28;2.78;;;0.43;;
39020;SDS011;25188;51.958;5.842;2022-07-06T06:53:54;3.50;;;0.50;;
39020;SDS011;25188;51.958;5.842;2022-07-06T06:56:20;2.75;;;0.50;;
39020;SDS011;25188;51.958;5.842;2022-07-06T06:58:45;2.95;;;0.50;;
39020;SDS011;25188;51.958;5.842;2022-07-06T07:01:11;3.78;;;0.40;;
39020;SDS011;25188;51.958;5.842;2022-07-06T07:03:36;1.30;;;0.30;;
39020;SDS011;25188;51.958;5.842;2022-07-06T07:06:02;1.38;;;0.20;;
39020;SDS011;25188;51.958;5.842;2022-07-06T07:08:27;1.33;;;0.20;;
39020;SDS011;25188;51.958;5.842;2022-07-06T07:10:53;3.90;;;0.40;;
39020;SDS011;25188;51.958;5.842;2022-07-06T07:13:19;4.20;;;0.40;;
39020;SDS011;25188;51.958;5.842;2022-07-06T07:15:44;1.90;;;0.22;;
39020;SDS011;25188;51.958;5.842;2022-07-06T07:18:10;4.10;;;0.30;;
39020;SDS011;25188;51.958;5.842;2022-07-06T07:20:36;5.53;;;0.47;;
39020;SDS011;25188;51.958;5.842;2022-07-06T07:23:01;2.03;;;0.35;;
39020;SDS011;25188;51.958;5.842;2022-07-06T07:25:27;2.95;;;0.60;;
39020;SDS011;25188;51.958;5.842;2022-07-06T07:27:53;3.83;;;0.55;;
39020;SDS011;25188;51.958;5.842;2022-07-06T07:30:19;2.30;;;0.32;;
39020;SDS011;25188;51.958;5.842;2022-07-06T07:32:45;5.47;;;0.38;;
39020;SDS011;25188;51.958;5.842;2022-07-06T07:35:11;3.45;;;0.50;;
39020;SDS011;25188;51.958;5.842;2022-07-06T07:37:37;4.78;;;0.30;;
39020;SDS011;25188;51.958;5.842;2022-07-06T07:40:03;1.80;;;0.40;;
39020;SDS011;25188;51.958;5.842;2022-07-06T07:42:30;2.58;;;0.65;;
39020;SDS011;25188;51.958;5.842;2022-07-06T07:44:56;1.38;;;0.20;;
39020;SDS011;25188;51.958;5.842;2022-07-06T07:47:22;3.15;;;0.50;;
39020;SDS011;25188;51.958;5.842;2022-07-06T07:49:47;2.88;;;0.30;;
39020;SDS011;25188;51.958;5.842;2022-07-06T07:52:13;1.38;;;0.30;;
39020;SDS011;25188;51.958;5.842;2022-07-06T07:54:39;2.47;;;0.40;;
39020;SDS011;25188;51.958;5.842;2022-07-06T07:57:04;1.88;;;0.28;;
39020;SDS011;25188;51.958;5.842;2022-07-06T07:59:30;5.85;;;0.30;;
39020;SDS011;25188;51.958;5.842;2022-07-06T08:01:56;3.10;;;0.30;;
39020;SDS011;25188;51.958;5.842;2022-07-06T08:04:21;1.90;;;0.20;;
39020;SDS011;25188;51.958;5.842;2022-07-06T08:06:47;1.25;;;0.20;;
39020;SDS011;25188;51.958;5.842;2022-07-06T08:09:13;3.70;;;0.43;;
39020;SDS011;25188;51.958;5.842;2022-07-06T08:11:39;2.20;;;0.35;;
39020;SDS011;25188;51.958;5.842;2022-07-06T08:14:04;4.45;;;0.28;;
39020;SDS011;25188;51.958;5.842;2022-07-06T08:16:31;2.25;;;0.20;;
39020;SDS011;25188;51.958;5.842;2022-07-06T08:18:57;2.25;;;0.20;;
39020;SDS011;25188;51.958;5.842;2022-07-06T08:21:22;4.13;;;0.45;;
39020;SDS011;25188;51.958;5.842;2022-07-06T08:23:48;1.42;;;0.10;;
39020;SDS011;25188;51.958;5.842;2022-07-06T08:26:14;4.82;;;0.45;;
39020;SDS011;25188;51.958;5.842;2022-07-06T08:28:40;2.97;;;0.40;;
39020;SDS011;25188;51.958;5.842;2022-07-06T08:31:05;1.58;;;0.10;;
39020;SDS011;25188;51.958;5.842;2022-07-06T08:33:31;0.63;;;0.10;;
39020;SDS011;25188;51.958;5.842;2022-07-06T08:35:57;2.60;;;0.20;;
39020;SDS011;25188;51.958;5.842;2022-07-06T08:38:22;3.60;;;0.20;;
39020;SDS011;25188;51.958;5.842;2022-07-06T08:40:49;1.35;;;0.20;;
39020;SDS011;25188;51.958;5.842;2022-07-06T08:43:16;1.33;;;0.20;;
39020;SDS011;25188;51.958;5.842;2022-07-06T08:45:42;1.58;;;0.20;;
39020;SDS011;25188;51.958;5.842;2022-07-06T08:48:11;0.35;;;0.10;;
39020;SDS011;25188;51.958;5.842;2022-07-06T08:50:37;3.03;;;0.30;;
39020;SDS011;25188;51.958;5.842;2022-07-06T08:53:04;1.70;;;0.10;;
39020;SDS011;25188;51.958;5.842;2022-07-06T08:55:30;1.13;;;0.10;;
39020;SDS011;25188;51.958;5.842;2022-07-06T08:57:56;1.23;;;0.20;;
39020;SDS011;25188;51.958;5.842;2022-07-06T09:00:23;0.47;;;0.10;;
39020;SDS011;25188;51.958;5.842;2022-07-06T09:02:50;0.80;;;0.17;;
39020;SDS011;25188;51.958;5.842;2022-07-06T09:05:18;0.52;;;0.10;;
39020;SDS011;25188;51.958;5.842;2022-07-06T09:07:50;2.58;;;0.15;;
39020;SDS011;25188;51.958;5.842;2022-07-06T09:10:17;3.13;;;0.20;;
39020;SDS011;25188;51.958;5.842;2022-07-06T09:12:44;0.75;;;0.13;;
39020;SDS011;25188;51.958;5.842;2022-07-06T09:15:10;0.38;;;0.10;;
39020;SDS011;25188;51.958;5.842;2022-07-06T09:17:40;1.13;;;0.10;;
39020;SDS011;25188;51.958;5.842;2022-07-06T09:20:10;2.10;;;0.20;;
39020;SDS011;25188;51.958;5.842;2022-07-06T09:22:37;1.95;;;0.17;;
39020;SDS011;25188;51.958;5.842;2022-07-06T09:25:07;0.30;;;0.10;;
39020;SDS011;25188;51.958;5.842;2022-07-06T09:27:42;2.58;;;0.10;;
39020;SDS011;25188;51.958;5.842;2022-07-06T09:30:14;1.63;;;0.30;;
39020;SDS011;25188;51.958;5.842;2022-07-06T09:32:41;0.65;;;0.10;;
39020;SDS011;25188;51.958;5.842;2022-07-06T09:35:18;2.28;;;0.25;;
39020;SDS011;25188;51.958;5.842;2022-07-06T09:40:37;0.65;;;0.10;;
39020;SDS011;25188;51.958;5.842;2022-07-06T09:43:11;1.48;;;0.10;;
39020;SDS011;25188;51.958;5.842;2022-07-06T09:45:43;1.25;;;0.10;;
39020;SDS011;25188;51.958;5.842;2022-07-06T09:48:14;1.23;;;0.10;;
39020;SDS011;25188;51.958;5.842;2022-07-06T09:50:47;0.50;;;0.10;;
39020;SDS011;25188;51.958;5.842;2022-07-06T09:53:16;1.75;;;0.20;;
39020;SDS011;25188;51.958;5.842;2022-07-06T09:55:43;1.33;;;0.15;;
39020;SDS011;25188;51.958;5.842;2022-07-06T09:58:10;1.02;;;0.10;;
39020;SDS011;25188;51.958;5.842;2022-07-06T10:00:36;0.70;;;0.10;;
39020;SDS011;25188;51.958;5.842;2022-07-06T10:03:01;0.88;;;0.20;;
39020;SDS011;25188;51.958;5.842;2022-07-06T10:05:28;0.88;;;0.20;;
39020;SDS011;25188;51.958;5.842;2022-07-06T10:07:56;1.35;;;0.20;;
39020;SDS011;25188;51.958;5.842;2022-07-06T10:10:26;3.80;;;0.35;;
39020;SDS011;25188;51.958;5.842;2022-07-06T10:12:56;1.85;;;0.20;;
39020;SDS011;25188;51.958;5.842;2022-07-06T10:15:26;1.23;;;0.13;;
39020;SDS011;25188;51.958;5.842;2022-07-06T10:17:54;1.70;;;0.13;;
39020;SDS011;25188;51.958;5.842;2022-07-06T10:20:21;1.17;;;0.10;;
39020;SDS011;25188;51.958;5.842;2022-07-06T10:22:47;2.25;;;0.20;;
39020;SDS011;25188;51.958;5.842;2022-07-06T10:25:17;0.95;;;0.08;;
39020;SDS011;25188;51.958;5.842;2022-07-06T10:27:45;0.52;;;0.10;;
39020;SDS011;25188;51.958;5.842;2022-07-06T10:30:12;0.90;;;0.20;;
39020;SDS011;25188;51.958;5.842;2022-07-06T10:32:39;1.23;;;0.30;;
39020;SDS011;25188;51.958;5.842;2022-07-06T10:35:07;0.85;;;0.10;;
39020;SDS011;25188;51.958;5.842;2022-07-06T10:37:33;0.80;;;0.20;;
39020;SDS011;25188;51.958;5.842;2022-07-06T10:39:59;0.70;;;0.10;;
39020;SDS011;25188;51.958;5.842;2022-07-06T10:42:44;0.50;;;0.10;;
39020;SDS011;25188;51.958;5.842;2022-07-06T10:45:15;0.77;;;0.10;;
39020;SDS011;25188;51.958;5.842;2022-07-06T10:50:37;2.58;;;0.47;;
39020;SDS011;25188;51.958;5.842;2022-07-06T10:53:03;2.05;;;0.20;;
39020;SDS011;25188;51.958;5.842;2022-07-06T10:55:36;1.08;;;0.20;;
39020;SDS011;25188;51.958;5.842;2022-07-06T10:58:04;1.98;;;0.20;;
39020;SDS011;25188;51.958;5.842;2022-07-06T11:08:44;1.63;;;0.25;;
39020;SDS011;25188;51.958;5.842;2022-07-06T11:16:29;1.98;;;0.43;;
39020;SDS011;25188;51.958;5.842;2022-07-06T11:19:08;0.70;;;0.20;;
39020;SDS011;25188;51.958;5.842;2022-07-06T11:26:51;3.05;;;0.20;;
39020;SDS011;25188;51.958;5.842;2022-07-06T11:29:19;0.55;;;0.10;;
39020;SDS011;25188;51.958;5.842;2022-07-06T11:31:46;1.23;;;0.10;;
39020;SDS011;25188;51.958;5.842;2022-07-06T11:34:17;2.00;;;0.10;;
39020;SDS011;25188;51.958;5.842;2022-07-06T11:36:45;2.50;;;0.30;;
39020;SDS011;25188;51.958;5.842;2022-07-06T11:39:11;0.65;;;0.20;;
39020;SDS011;25188;51.958;5.842;2022-07-06T11:41:37;1.98;;;0.13;;
39020;SDS011;25188;51.958;5.842;2022-07-06T11:44:03;2.78;;;0.17;;
39020;SDS011;25188;51.958;5.842;2022-07-06T11:46:29;3.25;;;0.20;;
39020;SDS011;25188;51.958;5.842;2022-07-06T11:48:58;2.72;;;0.10;;
39020;SDS011;25188;51.958;5.842;2022-07-06T11:51:26;0.75;;;0.20;;
39020;SDS011;25188;51.958;5.842;2022-07-06T11:53:53;1.65;;;0.30;;
39020;SDS011;25188;51.958;5.842;2022-07-06T11:56:21;1.90;;;0.20;;
39020;SDS011;25188;51.958;5.842;2022-07-06T11:58:51;2.67;;;0.30;;
39020;SDS011;25188;51.958;5.842;2022-07-06T12:01:18;0.50;;;0.20;;
39020;SDS011;25188;51.958;5.842;2022-07-06T12:03:43;1.98;;;0.20;;
39020;SDS011;25188;51.958;5.842;2022-07-06T12:06:28;1.10;;;0.20;;
39020;SDS011;25188;51.958;5.842;2022-07-06T12:08:55;1.67;;;0.20;;
39020;SDS011;25188;51.958;5.842;2022-07-06T12:11:26;2.03;;;0.20;;
39020;SDS011;25188;51.958;5.842;2022-07-06T12:13:54;1.38;;;0.20;;
39020;SDS011;25188;51.958;5.842;2022-07-06T12:16:21;2.42;;;0.30;;
39020;SDS011;25188;51.958;5.842;2022-07-06T12:18:53;1.17;;;0.10;;
39020;SDS011;25188;51.958;5.842;2022-07-06T12:21:19;0.82;;;0.30;;
39020;SDS011;25188;51.958;5.842;2022-07-06T12:23:50;1.60;;;0.20;;
39020;SDS011;25188;51.958;5.842;2022-07-06T12:26:21;2.20;;;0.30;;
39020;SDS011;25188;51.958;5.842;2022-07-06T12:29:03;1.42;;;0.20;;
39020;SDS011;25188;51.958;5.842;2022-07-06T12:31:56;1.15;;;0.20;;
39020;SDS011;25188;51.958;5.842;2022-07-06T12:34:25;0.90;;;0.20;;
39020;SDS011;25188;51.958;5.842;2022-07-06T12:36:53;2.78;;;0.20;;
39020;SDS011;25188;51.958;5.842;2022-07-06T12:39:24;0.28;;;0.10;;
39020;SDS011;25188;51.958;5.842;2022-07-06T12:42:01;1.30;;;0.10;;
39020;SDS011;25188;51.958;5.842;2022-07-06T12:44:30;1.92;;;0.20;;
39020;SDS011;25188;51.958;5.842;2022-07-06T12:47:02;1.73;;;0.20;;
39020;SDS011;25188;51.958;5.842;2022-07-06T12:49:30;0.90;;;0.10;;
39020;SDS011;25188;51.958;5.842;2022-07-06T12:52:00;0.63;;;0.10;;
39020;SDS011;25188;51.958;5.842;2022-07-06T13:04:58;0.43;;;0.10;;
39020;SDS011;25188;51.958;5.842;2022-07-06T13:07:24;0.93;;;0.10;;
39020;SDS011;25188;51.958;5.842;2022-07-06T13:09:51;0.80;;;0.10;;
39020;SDS011;25188;51.958;5.842;2022-07-06T13:12:17;0.80;;;0.10;;
39020;SDS011;25188;51.958;5.842;2022-07-06T13:14:42;1.08;;;0.25;;
39020;SDS011;25188;51.958;5.842;2022-07-06T13:17:08;2.55;;;0.22;;
39020;SDS011;25188;51.958;5.842;2022-07-06T13:19:34;1.13;;;0.10;;
39020;SDS011;25188;51.958;5.842;2022-07-06T13:21:59;1.65;;;0.17;;
39020;SDS011;25188;51.958;5.842;2022-07-06T13:24:25;0.63;;;0.10;;
39020;SDS011;25188;51.958;5.842;2022-07-06T13:26:53;1.90;;;0.20;;
39020;SDS011;25188;51.958;5.842;2022-07-06T13:29:20;1.50;;;0.10;;
39020;SDS011;25188;51.958;5.842;2022-07-06T13:31:45;0.95;;;0.17;;
39020;SDS011;25188;51.958;5.842;2022-07-06T13:34:11;1.88;;;0.20;;
39020;SDS011;25188;51.958;5.842;2022-07-06T13:36:38;2.47;;;0.40;;
39020;SDS011;25188;51.958;5.842;2022-07-06T13:39:04;1.42;;;0.20;;
39020;SDS011;25188;51.958;5.842;2022-07-06T13:41:31;1.42;;;0.20;;
39020;SDS011;25188;51.958;5.842;2022-07-06T13:43:57;1.77;;;0.20;;
39020;SDS011;25188;51.958;5.842;2022-07-06T13:46:23;0.95;;;0.10;;
39020;SDS011;25188;51.958;5.842;2022-07-06T13:48:49;0.88;;;0.15;;
39020;SDS011;25188;51.958;5.842;2022-07-06T13:51:15;2.03;;;0.22;;
39020;SDS011;25188;51.958;5.842;2022-07-06T13:53:40;2.10;;;0.30;;
39020;SDS011;25188;51.958;5.842;2022-07-06T13:56:06;0.93;;;0.28;;
39020;SDS011;25188;51.958;5.842;2022-07-06T13:58:33;2.03;;;0.20;;
39020;SDS011;25188;51.958;5.842;2022-07-06T14:00:59;0.70;;;0.10;;
39020;SDS011;25188;51.958;5.842;2022-07-06T14:03:25;0.43;;;0.10;;
39020;SDS011;25188;51.958;5.842;2022-07-06T14:05:54;2.58;;;0.20;;
39020;SDS011;25188;51.958;5.842;2022-07-06T14:08:24;2.58;;;0.15;;
39020;SDS011;25188;51.958;5.842;2022-07-06T14:10:50;1.67;;;0.20;;
39020;SDS011;25188;51.958;5.842;2022-07-06T14:13:16;1.95;;;0.28;;
39020;SDS011;25188;51.958;5.842;2022-07-06T14:15:42;0.40;;;0.17;;
39020;SDS011;25188;51.958;5.842;2022-07-06T14:18:08;2.95;;;0.20;;
39020;SDS011;25188;51.958;5.842;2022-07-06T14:20:34;1.67;;;0.20;;
39020;SDS011;25188;51.958;5.842;2022-07-06T14:22:59;1.52;;;0.20;;
39020;SDS011;25188;51.958;5.842;2022-07-06T14:25:25;2.22;;;0.10;;
39020;SDS011;25188;51.958;5.842;2022-07-06T14:27:51;2.05;;;0.40;;
39020;SDS011;25188;51.958;5.842;2022-07-06T14:30:16;1.30;;;0.20;;
39020;SDS011;25188;51.958;5.842;2022-07-06T14:32:42;1.58;;;0.30;;
39020;SDS011;25188;51.958;5.842;2022-07-06T14:35:09;0.75;;;0.10;;
39020;SDS011;25188;51.958;5.842;2022-07-06T14:37:35;1.58;;;0.10;;
39020;SDS011;25188;51.958;5.842;2022-07-06T14:40:01;1.73;;;0.28;;
39020;SDS011;25188;51.958;5.842;2022-07-06T14:42:27;0.82;;;0.20;;
39020;SDS011;25188;51.958;5.842;2022-07-06T14:44:53;1.52;;;0.25;;
39020;SDS011;25188;51.958;5.842;2022-07-06T14:47:19;2.22;;;0.20;;
39020;SDS011;25188;51.958;5.842;2022-07-06T14:49:44;1.98;;;0.20;;
39020;SDS011;25188;51.958;5.842;2022-07-06T14:52:10;3.80;;;0.22;;
39020;SDS011;25188;51.958;5.842;2022-07-06T14:54:36;1.42;;;0.30;;
39020;SDS011;25188;51.958;5.842;2022-07-06T14:57:02;1.63;;;0.20;;
39020;SDS011;25188;51.958;5.842;2022-07-06T14:59:29;1.75;;;0.30;;
39020;SDS011;25188;51.958;5.842;2022-07-06T15:01:55;2.75;;;0.28;;
39020;SDS011;25188;51.958;5.842;2022-07-06T15:04:21;1.75;;;0.20;;
39020;SDS011;25188;51.958;5.842;2022-07-06T15:06:47;1.25;;;0.40;;
39020;SDS011;25188;51.958;5.842;2022-07-06T15:09:13;1.85;;;0.30;;
39020;SDS011;25188;51.958;5.842;2022-07-06T15:11:39;2.08;;;0.20;;
39020;SDS011;25188;51.958;5.842;2022-07-06T15:14:04;3.33;;;0.30;;
39020;SDS011;25188;51.958;5.842;2022-07-06T15:16:30;1.05;;;0.20;;
39020;SDS011;25188;51.958;5.842;2022-07-06T15:18:56;3.72;;;0.60;;
39020;SDS011;25188;51.958;5.842;2022-07-06T15:21:21;3.10;;;0.40;;